Time;durP1;ratioP1;P1;durP2;ratioP2;P2;SDS_P1;SDS_P2;PMS_P1;PMS_P2;Temp;Humidity;BMP_temperature;BMP_pressure;BME280_temperature;BME280_humidity;BME280_pressure;Samples;Min_cycle;Max_cycle;Signal;HPM_P1;HPM_P2
2023/06/12 00:02:17;;;;;;;9.18;3.60;;;;;;;16.28;58.59;101893.47;5014337;28;20108;-71
2023/06/12 00:04:44;;;;;;;8.77;3.50;;;;;;;16.12;59.01;101892.63;5030296;28;20473;-70
2023/06/12 00:07:09;;;;;;;7.72;3.45;;;;;;;16.07;59.33;101889.38;4997719;28;20036;-71
2023/06/12 00:09:35;;;;;;;6.68;3.55;;;;;;;15.97;59.43;101892.56;5030226;28;20029;-71
2023/06/12 00:12:00;;;;;;;6.63;3.30;;;;;;;16.23;58.63;101890.22;5014315;28;20029;-71
2023/06/12 00:14:25;;;;;;;5.60;3.05;;;;;;;16.38;57.96;101883.13;5014587;28;20044;-71
2023/06/12 00:16:51;;;;;;;5.60;3.20;;;;;;;16.21;58.83;101876.09;5031911;28;20057;-71
2023/06/12 00:19:18;;;;;;;8.73;3.47;;;;;;;16.11;58.76;101880.25;5032712;28;20025;-73
2023/06/12 00:21:43;;;;;;;7.57;2.88;;;;;;;16.05;57.85;101877.91;5035564;28;20022;-72
2023/06/12 00:24:09;;;;;;;6.57;4.07;;;;;;;15.97;58.94;101875.69;5017828;28;20090;-72
2023/06/12 00:26:38;;;;;;;4.88;3.33;;;;;;;16.00;58.94;101876.38;5017718;28;20021;-72
2023/06/12 00:29:03;;;;;;;5.20;3.38;;;;;;;16.12;58.02;101876.63;5017628;28;20101;-72
2023/06/12 00:31:29;;;;;;;6.88;3.17;;;;;;;16.08;58.42;101875.06;5017359;28;20021;-71
2023/06/12 00:33:54;;;;;;;6.13;3.58;;;;;;;15.96;58.29;101871.31;5033636;28;20025;-72
2023/06/12 00:36:19;;;;;;;11.43;3.88;;;;;;;16.01;58.29;101877.25;5017619;28;20382;-72
2023/06/12 00:38:45;;;;;;;6.15;3.20;;;;;;;16.21;57.74;101877.91;5015538;28;20042;-71
2023/06/12 00:41:10;;;;;;;7.72;3.28;;;;;;;15.94;59.18;101874.06;4999134;28;20056;-74
2023/06/12 00:43:36;;;;;;;5.30;3.35;;;;;;;16.22;57.50;101877.81;5014785;28;20084;-73
2023/06/12 00:46:01;;;;;;;6.28;3.42;;;;;;;15.97;58.53;101879.22;5015116;28;20030;-72
2023/06/12 00:48:27;;;;;;;9.40;4.35;;;;;;;15.88;59.36;101869.91;4998663;28;20022;-72
2023/06/12 00:50:52;;;;;;;7.28;3.50;;;;;;;15.86;58.26;101865.59;5014852;28;20037;-72
2023/06/12 00:53:18;;;;;;;5.28;3.20;;;;;;;15.78;58.39;101867.81;5014427;28;20029;-72
2023/06/12 00:55:44;;;;;;;7.00;3.30;;;;;;;15.88;58.93;101871.72;4998239;28;20121;-71
2023/06/12 00:58:09;;;;;;;7.15;3.53;;;;;;;15.69;58.79;101872.72;5015899;28;20140;-70
2023/06/12 01:00:38;;;;;;;10.23;3.45;;;;;;;15.89;58.24;101865.44;5014287;28;20033;-70
2023/06/12 01:03:10;;;;;;;7.00;3.58;;;;;;;15.69;59.47;101863.84;5013606;28;20052;-71
2023/06/12 01:05:42;;;;;;;5.60;3.72;;;;;;;15.54;59.03;101865.56;5013589;28;20069;-70
2023/06/12 01:08:16;;;;;;;;;;;;;;;15.59;59.63;101868.84;5013611;28;20026;-69
2023/06/12 01:10:58;;;;;;;5.72;3.10;;;;;;;15.62;58.60;101868.69;5029842;28;19996;-71
2023/06/12 01:13:23;;;;;;;6.07;3.53;;;;;;;15.54;59.46;101860.25;5013545;28;20022;-70
2023/06/12 01:15:49;;;;;;;5.22;3.20;;;;;;;15.60;59.57;101865.22;5014882;28;20048;-70
2023/06/12 01:18:15;;;;;;;7.18;3.10;;;;;;;15.54;59.02;101866.41;5013962;28;20022;-70
2023/06/12 01:20:40;;;;;;;9.50;3.20;;;;;;;15.53;59.68;101869.19;5014340;28;20084;-70
2023/06/12 01:23:13;;;;;;;5.90;3.30;;;;;;;15.54;59.65;101866.41;5012742;28;20025;-70
2023/06/12 01:26:09;;;;;;;6.75;4.30;;;;;;;15.43;59.44;101864.31;5012734;28;20029;-72
2023/06/12 01:29:05;;;;;;;9.70;3.70;;;;;;;15.66;58.98;101859.56;5013990;28;20386;-70
2023/06/12 01:31:34;;;;;;;5.57;3.35;;;;;;;15.53;59.44;101869.19;5013289;28;20109;-70
2023/06/12 01:34:12;;;;;;;9.90;4.20;;;;;;;15.53;59.36;101858.53;4996445;28;20033;-70
2023/06/12 01:36:41;;;;;;;6.30;3.65;;;;;;;15.42;58.91;101854.59;5013823;28;20034;-69
2023/06/12 01:39:07;;;;;;;6.93;4.18;;;;;;;15.34;59.18;101870.16;5012777;28;20046;-71
2023/06/12 01:41:33;;;;;;;6.25;2.90;;;;;;;15.21;60.14;101845.09;5012859;28;20030;-70
2023/06/12 01:44:11;;;;;;;6.97;3.10;;;;;;;15.39;59.55;101848.59;4995696;28;20022;-69
2023/06/12 01:46:37;;;;;;;6.65;3.63;;;;;;;15.34;58.98;101854.16;4996008;28;20018;-70
2023/06/12 01:49:04;;;;;;;7.68;3.70;;;;;;;15.41;59.41;101849.38;5013663;28;20096;-70
2023/06/12 01:51:29;;;;;;;5.13;3.13;;;;;;;15.53;58.76;101853.19;5012434;28;20049;-71
2023/06/12 01:53:55;;;;;;;6.05;3.58;;;;;;;15.33;59.22;101852.44;5012673;28;20476;-70
2023/06/12 01:56:25;;;;;;;6.88;3.60;;;;;;;15.26;59.97;101845.72;5013198;28;20022;-70
2023/06/12 01:58:52;;;;;;;4.75;3.20;;;;;;;15.29;59.99;101841.09;5012156;28;20036;-70
2023/06/12 02:01:18;;;;;;;9.55;3.38;;;;;;;15.30;60.23;101848.16;5012246;28;20034;-70
2023/06/12 02:03:45;;;;;;;6.53;3.65;;;;;;;15.31;60.16;101843.66;5011829;28;20104;-70
2023/06/12 02:06:14;;;;;;;8.27;3.63;;;;;;;15.24;60.60;101847.59;5012911;28;20029;-70
2023/06/12 02:08:39;;;;;;;5.82;3.22;;;;;;;15.21;60.58;101851.31;5011803;28;20029;-70
2023/06/12 02:11:04;;;;;;;7.68;4.07;;;;;;;15.16;59.85;101840.88;5013090;28;20034;-70
2023/06/12 02:13:29;;;;;;;8.48;3.80;;;;;;;15.11;61.42;101837.59;5011900;28;20034;-71
2023/06/12 02:15:55;;;;;;;5.25;3.50;;;;;;;15.17;60.28;101841.75;5013389;28;20075;-71
2023/06/12 02:18:21;;;;;;;5.63;3.50;;;;;;;15.16;59.76;101846.22;5011619;28;20025;-70
2023/06/12 02:20:46;;;;;;;6.78;3.90;;;;;;;15.09;61.12;101839.50;5011721;28;20462;-70
2023/06/12 02:23:11;;;;;;;6.70;3.90;;;;;;;15.06;60.19;101844.97;5011753;28;20033;-70
2023/06/12 02:25:37;;;;;;;5.72;3.58;;;;;;;15.10;61.07;101835.88;4995741;28;20021;-70
2023/06/12 02:28:02;;;;;;;8.65;3.33;;;;;;;15.14;59.97;101834.78;5011635;28;20025;-70
2023/06/12 02:30:27;;;;;;;5.90;3.80;;;;;;;14.99;61.13;101832.94;5011488;28;20379;-69
2023/06/12 02:32:54;;;;;;;10.50;3.58;;;;;;;14.90;61.54;101833.41;5011402;28;20034;-71
2023/06/12 02:35:20;;;;;;;8.52;3.35;;;;;;;15.00;60.53;101840.81;5012593;28;20441;-70
2023/06/12 02:37:45;;;;;;;7.15;3.75;;;;;;;15.06;60.71;101844.97;4996816;28;20117;-69
2023/06/12 02:40:11;;;;;;;7.10;3.95;;;;;;;14.98;61.64;101847.19;4998477;28;20029;-70
2023/06/12 02:42:36;;;;;;;6.05;3.72;;;;;;;14.86;61.28;101849.56;5031938;28;20042;-71
2023/06/12 02:45:02;;;;;;;6.28;3.30;;;;;;;14.86;61.42;101854.88;5014499;28;20108;-70
2023/06/12 02:47:27;;;;;;;8.27;3.85;;;;;;;14.83;61.62;101849.72;5014431;28;20104;-70
2023/06/12 02:49:52;;;;;;;6.53;3.50;;;;;;;14.86;60.85;101849.56;5015156;28;20018;-71
2023/06/12 02:52:18;;;;;;;8.07;3.78;;;;;;;14.80;61.27;101860.53;5015450;28;20026;-69
2023/06/12 02:54:43;;;;;;;6.90;3.80;;;;;;;14.74;61.90;101844.84;5015040;28;20029;-70
2023/06/12 02:57:08;;;;;;;5.57;3.30;;;;;;;14.79;61.21;101857.94;5014401;28;20148;-70
2023/06/12 02:59:34;;;;;;;10.25;3.95;;;;;;;14.71;61.66;101850.31;5032283;28;20124;-70
2023/06/12 03:01:59;;;;;;;5.65;3.75;;;;;;;14.90;61.34;101855.56;5032152;28;20516;-71
2023/06/12 03:04:24;;;;;;;7.00;3.47;;;;;;;14.83;61.24;101860.38;5015269;28;20025;-71
2023/06/12 03:06:55;;;;;;;6.93;3.45;;;;;;;14.90;61.79;101860.06;5014740;28;20040;-70
2023/06/12 03:09:21;;;;;;;6.15;3.70;;;;;;;14.82;62.26;101869.31;5014943;28;20021;-71
2023/06/12 03:11:50;;;;;;;11.20;4.15;;;;;;;14.75;61.00;101861.69;5014068;28;20021;-71
2023/06/12 03:14:17;;;;;;;8.13;3.65;;;;;;;14.78;62.36;101851.75;5014150;28;20037;-70
2023/06/12 03:16:42;;;;;;;9.13;3.80;;;;;;;14.78;61.05;101854.44;5031708;28;20112;-70
2023/06/12 03:19:07;;;;;;;7.13;3.80;;;;;;;14.80;61.50;101860.53;5031633;28;20026;-71
2023/06/12 03:21:33;;;;;;;7.53;3.53;;;;;;;14.76;61.46;101858.94;5014178;28;20504;-69
2023/06/12 03:23:59;;;;;;;8.50;3.70;;;;;;;14.77;60.79;101854.50;5014152;28;20053;-71
2023/06/12 03:26:24;;;;;;;6.90;3.83;;;;;;;14.80;61.16;101859.66;5014288;28;20025;-71
2023/06/12 03:28:50;;;;;;;6.07;3.80;;;;;;;14.79;62.04;101858.81;5014311;28;20037;-71
2023/06/12 03:31:16;;;;;;;7.65;3.85;;;;;;;14.91;60.69;101859.13;5014784;28;20067;-71
2023/06/12 03:33:41;;;;;;;9.27;4.30;;;;;;;14.91;62.07;101857.28;5031807;28;20116;-71
2023/06/12 03:36:07;;;;;;;6.78;3.47;;;;;;;14.96;60.93;101854.41;5014519;28;20036;-71
2023/06/12 03:38:32;;;;;;;6.15;3.97;;;;;;;15.01;61.21;101852.34;4997901;28;20045;-71
2023/06/12 03:40:58;;;;;;;11.88;4.13;;;;;;;15.05;61.41;101859.25;4997967;28;20159;-71
2023/06/12 03:43:23;;;;;;;6.90;3.70;;;;;;;14.97;60.57;101856.97;5031074;28;20049;-70
2023/06/12 03:45:48;;;;;;;7.80;4.40;;;;;;;15.00;60.07;101855.97;5014706;28;20033;-70
2023/06/12 03:48:14;;;;;;;7.07;3.92;;;;;;;15.02;60.63;101859.41;5032091;28;20029;-71
2023/06/12 03:50:39;;;;;;;7.45;4.00;;;;;;;15.16;59.69;101861.38;5014046;28;20068;-70
2023/06/12 03:53:04;;;;;;;7.68;3.75;;;;;;;15.13;60.02;101853.50;5013633;28;20065;-70
2023/06/12 03:55:30;;;;;;;5.60;3.50;;;;;;;15.11;60.54;101848.25;5017184;28;20388;-70
2023/06/12 03:57:56;;;;;;;8.30;3.92;;;;;;;15.24;60.07;101853.81;5035572;28;20039;-70
2023/06/12 04:00:22;;;;;;;5.63;3.53;;;;;;;15.19;59.54;101857.66;5017380;28;20033;-70
2023/06/12 04:02:47;;;;;;;8.70;3.97;;;;;;;15.27;59.50;101853.66;5035126;28;20029;-72
2023/06/12 04:05:13;;;;;;;7.18;3.92;;;;;;;15.27;59.86;101858.97;5034188;28;20029;-72
2023/06/12 04:07:38;;;;;;;5.82;3.58;;;;;;;15.20;59.51;101862.03;5035182;28;20090;-71
2023/06/12 04:10:04;;;;;;;7.38;3.75;;;;;;;15.23;59.40;101852.09;5035648;28;20028;-71
2023/06/12 04:12:30;;;;;;;9.18;5.53;;;;;;;15.30;59.78;101857.94;5017811;28;20033;-71
2023/06/12 04:14:56;;;;;;;6.85;4.75;;;;;;;15.27;60.03;101855.44;5017444;28;20486;-70
2023/06/12 04:17:21;;;;;;;6.18;4.68;;;;;;;15.29;59.04;101861.53;5034653;28;20055;-70
2023/06/12 04:19:48;;;;;;;6.30;4.15;;;;;;;15.38;59.44;101855.72;5017809;28;20460;-72
2023/06/12 04:22:15;;;;;;;6.43;3.92;;;;;;;15.34;59.61;101859.50;5018473;28;20021;-70
2023/06/12 04:24:42;;;;;;;7.72;4.07;;;;;;;15.34;58.88;101856.81;5017586;28;20041;-71
2023/06/12 04:27:10;;;;;;;6.85;3.92;;;;;;;15.38;59.00;101865.53;5017668;28;20060;-69
2023/06/12 04:29:37;;;;;;;7.35;4.50;;;;;;;15.45;59.57;101867.78;5017513;28;20053;-70
2023/06/12 04:32:05;;;;;;;7.32;4.40;;;;;;;15.39;58.74;101854.78;5017363;28;20030;-69
2023/06/12 04:34:30;;;;;;;7.30;4.05;;;;;;;15.46;58.84;101871.31;5016785;28;20082;-71
2023/06/12 04:36:56;;;;;;;7.97;4.45;;;;;;;15.50;59.21;101867.53;5017133;28;20482;-71
2023/06/12 04:39:22;;;;;;;9.48;4.05;;;;;;;15.70;58.12;101861.13;5016539;28;20049;-70
2023/06/12 04:41:51;;;;;;;8.15;4.28;;;;;;;15.71;57.91;101868.16;5016701;28;20025;-69
2023/06/12 04:44:17;;;;;;;8.02;4.15;;;;;;;15.66;58.13;101862.22;5017311;28;20183;-70
2023/06/12 04:46:42;;;;;;;8.63;4.82;;;;;;;15.61;57.68;101858.97;5016903;28;20452;-70
2023/06/12 04:49:08;;;;;;;5.63;3.65;;;;;;;15.57;58.67;101868.06;5034030;28;20030;-70
2023/06/12 04:51:35;;;;;;;8.48;4.38;;;;;;;15.51;58.82;101857.72;5016781;28;20418;-70
2023/06/12 04:54:01;;;;;;;8.73;4.30;;;;;;;15.63;59.40;101865.06;5016530;28;20032;-70
2023/06/12 04:56:27;;;;;;;7.38;4.38;;;;;;;15.64;58.55;101855.25;5016466;28;20030;-71
2023/06/12 04:58:53;;;;;;;7.13;4.40;;;;;;;15.65;57.76;101860.50;5016249;28;20022;-69
2023/06/12 05:01:19;;;;;;;6.97;4.22;;;;;;;15.71;57.83;101862.84;5016385;28;20038;-71
2023/06/12 05:03:46;;;;;;;9.98;4.25;;;;;;;15.61;58.33;101872.28;5033996;28;20041;-71
2023/06/12 05:06:11;;;;;;;8.35;4.95;;;;;;;15.63;57.77;101874.84;5032550;28;20025;-70
2023/06/12 05:08:37;;;;;;;7.80;5.05;;;;;;;15.70;58.87;101877.13;5016414;28;20485;-70
2023/06/12 05:11:03;;;;;;;8.27;4.43;;;;;;;15.93;57.47;101866.16;5034129;28;20076;-70
2023/06/12 05:13:28;;;;;;;9.75;4.50;;;;;;;15.82;57.88;101875.56;5016179;28;20091;-70
2023/06/12 05:15:54;;;;;;;12.00;5.15;;;;;;;15.80;58.01;101871.25;5017089;28;20025;-72
2023/06/12 05:18:19;;;;;;;7.70;4.45;;;;;;;15.95;57.73;101872.25;5017372;28;20097;-70
2023/06/12 05:20:45;;;;;;;9.27;4.25;;;;;;;16.12;56.59;101865.94;5034229;28;20533;-71
2023/06/12 05:23:10;;;;;;;9.90;4.30;;;;;;;16.28;56.48;101868.59;5016349;28;20030;-71
2023/06/12 05:25:35;;;;;;;9.38;4.55;;;;;;;16.24;56.49;101873.25;5016973;28;20033;-71
2023/06/12 05:28:03;;;;;;;10.07;4.90;;;;;;;16.43;55.76;101873.03;5035077;28;20072;-73
2023/06/12 05:30:28;;;;;;;6.68;5.00;;;;;;;16.55;56.10;101874.16;5016914;28;20542;-71
2023/06/12 05:32:54;;;;;;;12.52;4.82;;;;;;;16.80;55.21;101871.84;5016789;28;20108;-71
2023/06/12 05:35:20;;;;;;;11.98;4.38;;;;;;;16.89;54.63;101872.13;5016357;28;20039;-73
2023/06/12 05:37:45;;;;;;;9.10;4.57;;;;;;;16.70;55.08;101877.75;5034021;28;20600;-71
2023/06/12 05:40:12;;;;;;;9.10;5.18;;;;;;;16.75;55.02;101864.09;5033430;28;20047;-71
2023/06/12 05:42:38;;;;;;;9.15;4.80;;;;;;;17.03;53.92;101863.31;5016093;28;20048;-71
2023/06/12 05:45:05;;;;;;;10.25;4.88;;;;;;;16.87;54.49;101867.84;5015416;28;20021;-70
2023/06/12 05:47:30;;;;;;;9.38;4.78;;;;;;;16.88;54.18;101870.41;5033612;28;20049;-71
2023/06/12 05:49:56;;;;;;;9.70;5.32;;;;;;;16.82;54.79;101870.78;5033533;28;20030;-70
2023/06/12 05:52:21;;;;;;;8.50;4.75;;;;;;;16.73;55.23;101868.66;5015856;28;20025;-70
2023/06/12 05:54:46;;;;;;;8.35;4.88;;;;;;;16.73;54.79;101882.03;5015769;28;20478;-71
2023/06/12 05:57:13;;;;;;;8.27;4.90;;;;;;;16.76;55.07;101871.16;5015699;28;20092;-70
2023/06/12 05:59:38;;;;;;;12.75;4.75;;;;;;;16.90;54.47;101873.84;4999573;28;20029;-72
2023/06/12 06:02:04;;;;;;;10.52;5.03;;;;;;;17.02;54.33;101877.63;5015580;28;20470;-71
2023/06/12 06:04:29;;;;;;;7.28;4.50;;;;;;;16.96;54.33;101872.63;4999410;28;20436;-70
2023/06/12 06:06:55;;;;;;;8.68;4.93;;;;;;;17.03;55.49;101889.16;5015766;28;20029;-72
2023/06/12 06:09:20;;;;;;;10.25;5.22;;;;;;;17.21;54.96;101881.84;5034948;28;20111;-71
2023/06/12 06:11:46;;;;;;;12.93;5.18;;;;;;;17.59;54.02;101885.75;5009206;28;20078;-71
2023/06/12 06:14:11;;;;;;;12.43;5.28;;;;;;;17.71;52.51;101878.78;5008588;28;20033;-71
2023/06/12 06:16:37;;;;;;;18.80;5.07;;;;;;;17.94;51.95;101882.66;5013111;28;20021;-71
2023/06/12 06:19:02;;;;;;;9.40;4.75;;;;;;;18.04;50.28;101886.50;4981110;28;20018;-71
2023/06/12 06:21:30;;;;;;;10.63;5.07;;;;;;;18.34;50.93;101888.09;4996776;28;20037;-71
2023/06/12 06:23:56;;;;;;;10.95;5.55;;;;;;;18.50;49.40;101887.06;4996869;28;20036;-71
2023/06/12 06:26:21;;;;;;;10.68;6.38;;;;;;;18.52;48.69;101890.50;4997061;28;20034;-70
2023/06/12 06:28:46;;;;;;;11.32;5.80;;;;;;;18.71;49.32;101889.28;4980578;28;20356;-70
2023/06/12 06:31:12;;;;;;;10.30;5.50;;;;;;;18.88;48.23;101891.66;4996502;28;20037;-70
2023/06/12 06:33:37;;;;;;;13.38;5.68;;;;;;;18.99;48.34;101890.09;4985260;28;20093;-71
2023/06/12 06:36:03;;;;;;;13.70;6.07;;;;;;;19.07;47.30;101883.25;5012619;28;20041;-70
2023/06/12 06:38:28;;;;;;;9.77;5.32;;;;;;;19.33;46.60;101890.44;5014140;28;20495;-73
2023/06/12 06:40:54;;;;;;;14.07;6.15;;;;;;;19.37;45.69;101890.09;4996687;28;20056;-72
2023/06/12 06:43:20;;;;;;;7.95;5.20;;;;;;;19.51;46.21;101888.25;4980759;28;20486;-73
2023/06/12 06:45:46;;;;;;;9.43;5.40;;;;;;;19.68;45.24;101884.38;4996406;28;20072;-72
2023/06/12 06:48:12;;;;;;;13.95;5.93;;;;;;;19.89;45.18;101881.09;4996006;28;20051;-71
2023/06/12 06:50:38;;;;;;;16.05;5.75;;;;;;;19.92;44.51;101880.88;4996090;28;20043;-71
2023/06/12 06:53:03;;;;;;;11.07;5.80;;;;;;;20.02;44.48;101875.72;4980255;28;20025;-72
2023/06/12 06:55:29;;;;;;;19.08;6.10;;;;;;;20.04;43.53;101882.66;4997095;28;20095;-72
2023/06/12 06:57:55;;;;;;;13.80;6.20;;;;;;;20.14;43.52;101887.38;5002019;28;20021;-73
2023/06/12 07:00:22;;;;;;;14.95;5.97;;;;;;;20.22;42.89;101887.66;5033679;28;20530;-73
2023/06/12 07:02:50;;;;;;;13.60;5.63;;;;;;;20.36;42.46;101892.88;5009656;28;20022;-72
2023/06/12 07:05:16;;;;;;;17.30;5.35;;;;;;;20.38;42.66;101890.91;4979850;28;20021;-74
2023/06/12 07:07:47;;;;;;;16.38;6.07;;;;;;;20.58;42.56;101893.09;4995567;28;20029;-72
2023/06/12 07:10:12;;;;;;;16.67;5.30;;;;;;;20.72;42.37;101890.19;4994771;28;20022;-72
2023/06/12 07:12:37;;;;;;;9.73;5.00;;;;;;;20.77;41.69;101892.50;4995695;28;20075;-73
2023/06/12 07:15:03;;;;;;;9.57;5.65;;;;;;;20.92;41.22;101887.81;4995942;28;20375;-71
2023/06/12 07:17:29;;;;;;;7.28;5.43;;;;;;;20.96;41.23;101891.97;5012736;28;20025;-72
2023/06/12 07:19:54;;;;;;;11.30;5.57;;;;;;;20.97;40.89;101889.19;4995740;28;20033;-72
2023/06/12 07:22:20;;;;;;;10.10;4.90;;;;;;;21.13;40.92;101893.38;4978779;28;20029;-71
2023/06/12 07:24:45;;;;;;;10.82;5.32;;;;;;;21.35;39.94;101886.28;4995502;28;20117;-72
2023/06/12 07:27:11;;;;;;;14.75;4.85;;;;;;;21.36;39.04;101882.59;4979838;28;20386;-71
2023/06/12 07:29:36;;;;;;;11.40;4.93;;;;;;;21.40;39.39;101895.72;4981611;28;20076;-72
2023/06/12 07:32:02;;;;;;;15.65;5.40;;;;;;;21.55;39.07;101890.06;4999931;28;20030;-72
2023/06/12 07:34:27;;;;;;;11.00;6.10;;;;;;;21.68;39.21;101896.22;5017594;28;20057;-73
2023/06/12 07:36:52;;;;;;;9.90;5.22;;;;;;;21.82;39.30;101892.41;5017071;28;20057;-72
2023/06/12 07:39:18;;;;;;;10.63;5.20;;;;;;;21.91;38.24;101903.41;4999788;28;20505;-73
2023/06/12 07:41:44;;;;;;;11.52;4.85;;;;;;;21.78;38.16;101899.03;5000452;28;20033;-71
2023/06/12 07:44:10;;;;;;;11.00;5.25;;;;;;;22.05;38.48;101905.81;4984353;28;20029;-71
2023/06/12 07:46:36;;;;;;;10.77;4.97;;;;;;;22.43;37.37;101904.50;5017107;28;20045;-71
2023/06/12 07:49:01;;;;;;;10.27;4.63;;;;;;;22.30;36.62;101909.19;5016762;28;20095;-72
2023/06/12 07:51:27;;;;;;;12.10;5.20;;;;;;;22.21;36.65;101896.47;4999244;28;20021;-72
2023/06/12 07:53:52;;;;;;;11.57;4.78;;;;;;;22.32;36.36;101896.44;4999715;28;20025;-71
2023/06/12 07:56:17;;;;;;;13.60;6.20;;;;;;;22.81;36.05;101906.78;4999177;28;20034;-71
2023/06/12 07:58:44;;;;;;;11.85;5.35;;;;;;;22.82;36.59;101905.81;5012520;28;20033;-72
2023/06/12 08:01:10;;;;;;;12.50;4.90;;;;;;;22.89;36.38;101904.28;5018583;28;20381;-72
2023/06/12 08:03:39;;;;;;;12.35;5.00;;;;;;;23.03;36.42;101902.22;5018547;28;20398;-72
2023/06/12 08:06:15;;;;;;;9.02;5.18;;;;;;;23.15;36.26;101901.19;5018793;28;20029;-72
2023/06/12 08:08:46;;;;;;;10.88;5.40;;;;;;;23.05;34.77;101898.44;5019361;28;20057;-71
2023/06/12 08:11:12;;;;;;;10.45;5.07;;;;;;;23.17;34.65;101899.22;5036272;28;20032;-71
2023/06/12 08:13:38;;;;;;;16.30;5.30;;;;;;;23.24;35.31;101892.31;5017961;28;20025;-70
2023/06/12 08:16:03;;;;;;;9.07;4.65;;;;;;;23.23;34.47;101893.28;5001698;28;20112;-72
2023/06/12 08:18:29;;;;;;;8.80;5.38;;;;;;;23.57;34.20;101893.00;5018216;28;20051;-71
2023/06/12 08:20:54;;;;;;;11.82;4.88;;;;;;;23.68;33.35;101888.50;5018123;28;20478;-73
2023/06/12 08:23:20;;;;;;;11.63;4.90;;;;;;;23.90;33.34;101891.97;5017631;28;20363;-71
2023/06/12 08:25:45;;;;;;;7.55;4.60;;;;;;;23.94;33.66;101896.13;5017808;28;20475;-72
2023/06/12 08:28:11;;;;;;;10.88;5.30;;;;;;;24.13;33.89;101893.47;5034390;28;20033;-71
2023/06/12 08:30:36;;;;;;;13.95;4.72;;;;;;;24.18;33.94;101890.31;5035712;28;20538;-71
2023/06/12 08:33:03;;;;;;;13.00;5.15;;;;;;;24.33;33.33;101887.22;5017628;28;20021;-72
2023/06/12 08:35:29;;;;;;;10.85;4.70;;;;;;;24.15;33.03;101896.00;5035359;28;20026;-71
2023/06/12 08:37:54;;;;;;;9.90;5.82;;;;;;;24.41;32.79;101893.63;5017640;28;20399;-72
2023/06/12 08:40:20;;;;;;;6.65;5.20;;;;;;;24.45;32.54;101892.34;5017669;28;20033;-72
2023/06/12 08:42:49;;;;;;;8.30;4.95;;;;;;;24.53;32.41;101901.59;5035228;28;20105;-73
2023/06/12 08:45:19;;;;;;;9.20;4.57;;;;;;;24.32;32.63;101891.78;5001338;28;20032;-72
2023/06/12 08:47:47;;;;;;;12.82;4.90;;;;;;;24.45;32.32;101886.94;5018376;28;20021;-72
2023/06/12 08:50:12;;;;;;;12.18;5.40;;;;;;;24.57;32.07;101886.78;5035182;28;20541;-71
2023/06/12 08:52:38;;;;;;;10.10;4.78;;;;;;;24.60;31.74;101886.47;5000873;28;20104;-71
2023/06/12 08:55:07;;;;;;;12.60;5.10;;;;;;;24.76;31.46;101885.09;5017824;28;20022;-71
2023/06/12 08:57:33;;;;;;;13.57;4.90;;;;;;;25.04;31.32;101883.31;5014568;28;20040;-72
2023/06/12 08:59:59;;;;;;;8.38;4.57;;;;;;;25.01;31.77;101887.16;4997481;28;20530;-72
2023/06/12 09:02:26;;;;;;;13.40;4.60;;;;;;;24.79;32.72;101893.75;4998035;28;20097;-72
2023/06/12 09:04:59;;;;;;;9.80;4.55;;;;;;;25.12;30.95;101888.84;4997722;28;20040;-72
2023/06/12 09:07:25;;;;;;;9.50;4.70;;;;;;;25.13;31.32;101901.41;4997729;28;20022;-71
2023/06/12 09:09:51;;;;;;;9.93;4.95;;;;;;;25.14;30.81;101892.28;5013995;28;20084;-71
2023/06/12 09:12:16;;;;;;;12.55;5.00;;;;;;;25.26;30.72;101882.09;4997683;28;20030;-72
2023/06/12 09:14:50;;;;;;;7.13;4.05;;;;;;;25.41;29.90;101889.75;5014330;28;20033;-70
2023/06/12 09:17:15;;;;;;;10.15;4.50;;;;;;;25.33;31.04;101891.31;4998414;28;20026;-70
2023/06/12 09:19:43;;;;;;;7.82;4.43;;;;;;;25.30;30.67;101894.34;5015147;28;20028;-72
2023/06/12 09:22:09;;;;;;;7.15;4.18;;;;;;;25.42;30.36;101895.00;4998584;28;20025;-67
2023/06/12 09:24:34;;;;;;;13.30;5.07;;;;;;;25.54;29.44;101887.56;4981598;28;20034;-68
2023/06/12 09:27:00;;;;;;;10.02;4.20;;;;;;;25.29;29.55;101889.06;4997355;28;20033;-67
2023/06/12 09:29:30;;;;;;;10.10;4.57;;;;;;;25.45;29.60;101885.75;4997577;28;20064;-66
2023/06/12 09:32:02;;;;;;;12.85;4.38;;;;;;;25.57;28.85;101879.16;4998124;28;20022;-67
2023/06/12 09:34:27;;;;;;;6.95;4.75;;;;;;;25.45;29.10;101878.47;5014005;28;20482;-67
2023/06/12 09:36:53;;;;;;;8.73;4.95;;;;;;;25.71;29.10;101877.78;4997154;28;20034;-66
2023/06/12 09:39:26;;;;;;;6.43;4.55;;;;;;;26.26;27.90;101878.72;4997091;28;20132;-66
2023/06/12 09:41:52;;;;;;;9.35;4.65;;;;;;;26.37;27.91;101876.75;4997414;28;20083;-67
2023/06/12 09:44:30;;;;;;;10.45;4.13;;;;;;;26.22;26.97;101873.78;4997289;28;20088;-67
2023/06/12 09:47:01;;;;;;;9.48;4.50;;;;;;;25.84;27.30;101882.84;4997272;28;20026;-67
2023/06/12 09:49:27;;;;;;;6.93;4.10;;;;;;;25.93;26.60;101883.78;4981605;28;20025;-67
2023/06/12 09:51:54;;;;;;;7.80;3.50;;;;;;;25.75;27.17;101890.03;4996294;28;20370;-68
2023/06/12 09:54:21;;;;;;;6.82;4.07;;;;;;;25.81;27.99;101877.72;4981026;28;20032;-66
2023/06/12 09:56:48;;;;;;;11.93;3.95;;;;;;;25.63;26.94;101885.81;5013480;28;20026;-68
2023/06/12 09:59:17;;;;;;;7.50;3.70;;;;;;;26.03;26.15;101881.00;5028849;28;20029;-67
2023/06/12 10:01:51;;;;;;;8.18;4.03;;;;;;;25.94;25.17;101871.06;5016748;28;20029;-68
2023/06/12 10:04:26;;;;;;;8.10;3.75;;;;;;;26.11;25.46;101886.50;5000570;28;20059;-68
2023/06/12 10:07:04;;;;;;;9.10;4.00;;;;;;;25.94;24.37;101871.06;5016998;28;20091;-68
2023/06/12 10:09:31;;;;;;;7.72;4.63;;;;;;;26.06;25.08;101877.97;4999509;28;20123;-66
2023/06/12 10:11:57;;;;;;;9.77;3.78;;;;;;;26.49;23.24;101881.81;5033650;28;20486;-67
2023/06/12 10:14:26;;;;;;;9.52;4.53;;;;;;;26.55;24.49;101874.91;5016009;28;20031;-67
2023/06/12 10:16:53;;;;;;;8.80;4.40;;;;;;;26.71;23.84;101884.19;4992772;28;20033;-68
2023/06/12 10:19:18;;;;;;;12.48;5.38;;;;;;;26.35;24.69;101887.78;5016992;28;20510;-67
2023/06/12 10:21:44;;;;;;;9.88;3.88;;;;;;;26.19;24.08;101881.22;4998932;28;20033;-67
2023/06/12 10:24:10;;;;;;;6.72;3.53;;;;;;;26.41;24.36;101884.44;4996612;28;20140;-66
2023/06/12 10:26:35;;;;;;;11.27;4.60;;;;;;;26.66;24.23;101879.22;5023538;28;20018;-67
2023/06/12 10:29:01;;;;;;;8.77;3.95;;;;;;;26.78;23.85;101877.94;4997477;28;20042;-67
2023/06/12 10:31:29;;;;;;;6.80;3.92;;;;;;;26.90;23.24;101866.88;5014191;28;20141;-67
2023/06/12 10:33:58;;;;;;;9.40;4.07;;;;;;;26.69;24.07;101873.47;4997226;28;20048;-68
2023/06/12 10:36:23;;;;;;;5.30;3.75;;;;;;;26.65;23.94;101866.66;4996149;28;20030;-67
2023/06/12 10:38:49;;;;;;;8.68;4.18;;;;;;;26.86;24.07;101869.03;4996337;28;20053;-67
2023/06/12 10:41:31;;;;;;;8.38;3.88;;;;;;;27.06;23.46;101868.81;4996762;28;20108;-67
2023/06/12 10:43:57;;;;;;;10.65;4.93;;;;;;;27.11;23.99;101860.19;5023989;28;20078;-66
2023/06/12 10:46:22;;;;;;;10.13;4.50;;;;;;;26.49;24.01;101864.66;4993378;28;20037;-67
2023/06/12 10:48:48;;;;;;;12.93;4.05;;;;;;;26.31;23.70;101857.41;4996308;28;20423;-67
2023/06/12 10:51:13;;;;;;;10.50;5.25;;;;;;;26.08;24.78;101856.13;5016180;28;20021;-66
2023/06/12 10:53:44;;;;;;;10.25;4.45;;;;;;;26.44;23.29;101862.44;4986329;28;20083;-66
2023/06/12 10:56:09;;;;;;;6.60;3.90;;;;;;;26.70;23.36;101856.16;4980605;28;20467;-67
2023/06/12 10:58:36;;;;;;;11.73;4.32;;;;;;;26.46;23.66;101868.56;5004614;28;20033;-67
2023/06/12 11:01:10;;;;;;;11.65;4.28;;;;;;;26.47;22.12;101863.97;4996754;28;20390;-67
2023/06/12 11:03:44;;;;;;;9.20;4.70;;;;;;;26.44;22.65;101867.00;4997512;28;20061;-68
2023/06/12 11:06:15;;;;;;;6.88;3.70;;;;;;;26.82;22.61;101864.03;4996618;28;20120;-68
2023/06/12 11:08:41;;;;;;;10.35;3.88;;;;;;;27.09;22.64;101844.06;5003471;28;20021;-67
2023/06/12 11:11:07;;;;;;;9.25;3.72;;;;;;;26.85;22.25;101851.06;5000179;28;20363;-68
2023/06/12 11:13:33;;;;;;;7.18;3.63;;;;;;;26.96;22.31;101849.94;5011457;28;20048;-67
2023/06/12 11:15:58;;;;;;;7.40;4.07;;;;;;;26.89;21.13;101854.28;5015680;28;20029;-68
2023/06/12 11:18:24;;;;;;;7.63;3.67;;;;;;;26.30;22.47;101858.41;5013532;28;20379;-67
2023/06/12 11:20:54;;;;;;;5.60;3.47;;;;;;;26.02;22.59;101852.19;5011642;28;20038;-68